createdAt,value
2018-02-06T00:00:07.089Z,-1
2018-02-06T00:01:10.662Z,-1
2018-02-06T00:02:14.871Z,-1
2018-02-06T00:03:18.446Z,-1
2018-02-06T00:04:22.067Z,-1
2018-02-06T00:05:25.558Z,-1
2018-02-06T00:06:29.177Z,-1.2
2018-02-06T00:07:36.312Z,-1
2018-02-06T00:08:40.071Z,-1.1
2018-02-06T00:09:43.728Z,-1.1
2018-02-06T00:10:47.328Z,-1
2018-02-06T00:11:50.909Z,-1
2018-02-06T00:12:54.605Z,-1.1
2018-02-06T00:13:58.848Z,-1.1
2018-02-06T00:15:02.998Z,-1.1
2018-02-06T00:16:06.567Z,-1.1
2018-02-06T00:17:10.393Z,-1.1
2018-02-06T00:18:17.737Z,-1
2018-02-06T00:19:21.407Z,-1
2018-02-06T00:20:25.004Z,-1
2018-02-06T00:21:28.539Z,-1.1
2018-02-06T00:22:33.533Z,-1.1
2018-02-06T00:23:37.024Z,-1.1
2018-02-06T00:24:40.603Z,-1.2
2018-02-06T00:25:44.126Z,-1.1
2018-02-06T00:26:47.784Z,-1.2
2018-02-06T00:27:51.274Z,-1.2
2018-02-06T00:28:58.517Z,-1.2
2018-02-06T00:30:02.154Z,-1.2
2018-02-06T00:31:06.253Z,-1.2
2018-02-06T00:32:09.747Z,-1.2
2018-02-06T00:33:13.525Z,-1.2
2018-02-06T00:34:16.991Z,-1.2
2018-02-06T00:35:20.480Z,-1.2
2018-02-06T00:36:23.764Z,-1.2
2018-02-06T00:37:28.079Z,-1.2
2018-02-06T00:38:32.288Z,-1.3
2018-02-06T00:39:39.402Z,-1.2
2018-02-06T00:40:42.951Z,-1.3
2018-02-06T00:41:46.441Z,-1.2
2018-02-06T00:42:50.642Z,-1.2
2018-02-06T00:43:54.916Z,-1.2
2018-02-06T00:44:59.181Z,-1.2
2018-02-06T00:46:03.486Z,-1.2
2018-02-06T00:47:07.043Z,-1.2
2018-02-06T00:48:10.550Z,-1.2
2018-02-06T00:49:14.246Z,-1.2
2018-02-06T00:50:22.731Z,-1.2
2018-02-06T00:51:26.870Z,-1.2
2018-02-06T00:52:30.412Z,-1.2
2018-02-06T00:53:34.138Z,-1.2
2018-02-06T00:54:37.711Z,-1.2
2018-02-06T00:55:41.249Z,-1.2
2018-02-06T00:56:45.273Z,-1.2
2018-02-06T00:57:49.006Z,-1.2
2018-02-06T00:58:53.196Z,-1.2
2018-02-06T00:59:57.307Z,-1.3
2018-02-06T01:01:05.453Z,-1.2
2018-02-06T01:02:08.967Z,-1.2
2018-02-06T01:03:12.642Z,-1.2
2018-02-06T01:04:16.252Z,-1.3
2018-02-06T01:05:19.586Z,-1.2
2018-02-06T01:06:23.720Z,-1.2
2018-02-06T01:07:27.997Z,-1.2
2018-02-06T01:08:31.415Z,-1.2
2018-02-06T01:09:35.003Z,-1.2
2018-02-06T01:10:38.471Z,-1.2
2018-02-06T01:11:45.936Z,-1.2
2018-02-06T01:12:49.468Z,-1.2
2018-02-06T01:13:53.084Z,-1.2
2018-02-06T01:14:56.821Z,-1.2
2018-02-06T01:16:00.274Z,-1.2
2018-02-06T01:17:05.094Z,-1.2
2018-02-06T01:18:08.473Z,-1.3
2018-02-06T01:19:12.579Z,-1.3
2018-02-06T01:20:16.214Z,-1.4
2018-02-06T01:21:20.752Z,-1.5
2018-02-06T01:22:28.496Z,-1.5
2018-02-06T01:23:33.027Z,-1.5
2018-02-06T01:24:37.339Z,-1.5
2018-02-06T01:25:40.734Z,-1.5
2018-02-06T01:26:43.861Z,-1.5
2018-02-06T01:27:47.285Z,-1.5
2018-02-06T01:28:50.900Z,-1.5
2018-02-06T01:29:54.920Z,-1.5
2018-02-06T01:31:08.503Z,-1.5
2018-02-06T01:32:12.124Z,-1.5
2018-02-06T01:33:20.622Z,-1.5
2018-02-06T01:34:24.096Z,-1.5
2018-02-06T01:35:28.240Z,-1.5
2018-02-06T01:36:31.799Z,-1.5
2018-02-06T01:37:35.241Z,-1.5
2018-02-06T01:40:15.272Z,-1.4
2018-02-06T01:41:19.599Z,-1.4
2018-02-06T01:42:23.149Z,-1.4
2018-02-06T01:43:26.947Z,-1.4
2018-02-06T01:44:30.778Z,-1.4
2018-02-06T01:45:37.875Z,-1.4
2018-02-06T01:46:41.512Z,-1.5
2018-02-06T01:47:45.094Z,-1.5
2018-02-06T01:48:49.335Z,-1.5
2018-02-06T01:49:53.779Z,-1.5
2018-02-06T01:50:57.997Z,-1.5
2018-02-06T01:52:01.655Z,-1.5
2018-02-06T01:53:05.680Z,-1.6
2018-02-06T01:54:10.223Z,-1.6
2018-02-06T01:55:13.642Z,-1.6
2018-02-06T01:56:20.883Z,-1.6
2018-02-06T01:57:24.377Z,-1.6
2018-02-06T01:58:27.943Z,-1.6
2018-02-06T01:59:31.481Z,-1.7
2018-02-06T02:00:34.880Z,-1.6
2018-02-06T02:01:38.419Z,-1.6
2018-02-06T02:02:42.260Z,-1.6
2018-02-06T02:03:46.552Z,-1.5
2018-02-06T02:04:50.717Z,-1.5
2018-02-06T02:05:54.291Z,-1.5
2018-02-06T02:07:02.287Z,-1.5
2018-02-06T02:08:05.941Z,-1.4
2018-02-06T02:09:09.538Z,-1.4
2018-02-06T02:10:13.077Z,-1.5
2018-02-06T02:11:16.620Z,-1.5
2018-02-06T02:12:20.745Z,-1.5
2018-02-06T02:13:24.219Z,-1.5
2018-02-06T02:14:28.869Z,-1.5
2018-02-06T02:15:32.464Z,-1.5
2018-02-06T02:16:37.006Z,-1.5
2018-02-06T02:17:44.087Z,-1.4
2018-02-06T02:18:48.899Z,-1.5
2018-02-06T02:19:52.365Z,-1.5
2018-02-06T02:20:55.749Z,-1.5
2018-02-06T02:21:59.945Z,-1.5
2018-02-06T02:23:03.422Z,-1.5
2018-02-06T02:24:08.157Z,-1.5
2018-02-06T02:25:14.483Z,-1.5
2018-02-06T02:26:17.916Z,-1.5
2018-02-06T02:27:21.454Z,-1.5
2018-02-06T02:28:28.457Z,-1.5
2018-02-06T02:29:34.726Z,-1.5
2018-02-06T02:30:39.601Z,-1.5
2018-02-06T02:31:44.973Z,-1.5
2018-02-06T02:32:50.083Z,-1.5
2018-02-06T02:33:54.924Z,-1.5
2018-02-06T02:34:58.878Z,-1.5
2018-02-06T02:36:03.741Z,-1.5
2018-02-06T02:37:09.128Z,-1.5
2018-02-06T02:38:13.281Z,-1.5
2018-02-06T02:39:23.530Z,-1.4
2018-02-06T02:40:28.658Z,-1.4
2018-02-06T02:41:34.303Z,-1.5
2018-02-06T04:39:05.671Z,-1.7
2018-02-06T04:40:09.894Z,-1.7
2018-02-06T04:41:13.405Z,-1.8
2018-02-06T04:42:17.342Z,-1.8
2018-02-06T04:43:20.909Z,-1.8
2018-02-06T04:44:24.527Z,-1.8
2018-02-06T04:45:28.213Z,-1.8
2018-02-06T04:46:31.747Z,-1.8
2018-02-06T04:47:35.352Z,-1.8
2018-02-06T04:48:45.731Z,-1.8
2018-02-06T04:49:49.236Z,-1.8
2018-02-06T04:50:52.849Z,-1.8
2018-02-06T04:51:56.291Z,-1.8
2018-02-06T04:52:59.721Z,-1.8
2018-02-06T04:54:03.316Z,-1.7
2018-02-06T04:55:06.901Z,-1.8
2018-02-06T04:56:12.299Z,-1.8
2018-02-06T04:57:15.688Z,-1.9
2018-02-06T04:58:19.222Z,-2
2018-02-06T04:59:26.989Z,-2
2018-02-06T05:00:30.551Z,-2
2018-02-06T05:01:34.068Z,-2
2018-02-06T05:02:37.708Z,-2
2018-02-06T05:03:41.379Z,-2
2018-02-06T05:04:44.831Z,-2
2018-02-06T05:05:49.030Z,-2
2018-02-06T05:06:52.467Z,-2
2018-02-06T05:07:56.043Z,-1.9
2018-02-06T05:09:00.257Z,-1.9
2018-02-06T05:10:07.390Z,-1.9
2018-02-06T05:11:10.974Z,-2
2018-02-06T05:12:14.550Z,-1.9
2018-02-06T05:13:18.873Z,-1.9
2018-02-06T05:14:24.305Z,-1.9
2018-02-06T05:15:27.920Z,-1.9
2018-02-06T05:16:32.047Z,-1.9
2018-02-06T05:17:35.474Z,-1.9
2018-02-06T05:18:38.932Z,-2
2018-02-06T05:19:42.354Z,-2
2018-02-06T05:20:50.279Z,-2
2018-02-06T05:21:53.846Z,-2
2018-02-06T05:22:57.288Z,-2
2018-02-06T05:24:01.751Z,-2
2018-02-06T05:25:06.129Z,-2
2018-02-06T05:26:09.726Z,-2
2018-02-06T05:27:13.217Z,-2
2018-02-06T05:28:17.368Z,-2
2018-02-06T05:29:21.016Z,-2
2018-02-06T05:30:24.596Z,-2
2018-02-06T05:31:32.263Z,-2
2018-02-06T05:32:36.799Z,-2
2018-02-06T05:33:40.459Z,-2
2018-02-06T05:34:43.838Z,-1.9
2018-02-06T05:35:47.172Z,-2
2018-02-06T05:36:50.859Z,-2
2018-02-06T05:37:54.467Z,-2
2018-02-06T05:38:58.145Z,-1.9
2018-02-06T05:40:01.622Z,-2
2018-02-06T05:41:05.283Z,-2
2018-02-06T05:42:12.150Z,-2
2018-02-06T05:43:15.585Z,-2
2018-02-06T05:44:18.977Z,-2
2018-02-06T05:45:22.531Z,-2
2018-02-06T05:46:25.948Z,-2
2018-02-06T05:47:29.769Z,-2
2018-02-06T05:48:33.174Z,-2
2018-02-06T05:49:36.593Z,-2
2018-02-06T05:50:40.108Z,-2
2018-02-06T05:51:43.625Z,-2
2018-02-06T05:52:52.566Z,-2
2018-02-06T05:53:56.653Z,-2.1
2018-02-06T05:55:00.233Z,-2.1
2018-02-06T05:56:03.752Z,-2.1
2018-02-06T05:57:08.339Z,-2.1
2018-02-06T05:58:12.252Z,-2.1
2018-02-06T05:59:15.852Z,-2.1
2018-02-06T06:00:19.397Z,-2.1
2018-02-06T06:01:24.821Z,-2.1
2018-02-06T06:02:28.460Z,-2.1
2018-02-06T06:03:35.512Z,-2.1
2018-02-06T06:04:38.947Z,-2.1
2018-02-06T06:05:43.485Z,-2.1
2018-02-06T06:06:47.087Z,-2.1
2018-02-06T06:07:50.497Z,-2.1
2018-02-06T06:08:54.177Z,-2.1
2018-02-06T06:09:57.602Z,-2.1
2018-02-06T06:11:01.039Z,-2.1
2018-02-06T06:12:04.572Z,-2.1
2018-02-06T06:13:08.550Z,-2.1
2018-02-06T06:14:15.516Z,-2.1
2018-02-06T06:15:19.163Z,-2.1
2018-02-06T06:16:22.789Z,-2.2
2018-02-06T06:17:26.252Z,-2.1
2018-02-06T06:18:29.689Z,-2.1
2018-02-06T06:19:33.190Z,-2.1
2018-02-06T06:20:36.683Z,-2.2
2018-02-06T06:21:40.180Z,-2.2
2018-02-06T06:22:46.084Z,-2.2
2018-02-06T06:23:51.375Z,-2.2
2018-02-06T06:26:48.080Z,-2.2
2018-02-06T06:27:55.135Z,-2.3
2018-02-06T06:28:59.593Z,-2.3
2018-02-06T06:30:03.238Z,-2.1
2018-02-06T06:31:06.901Z,-2.2
2018-02-06T06:32:10.295Z,-2.2
2018-02-06T06:33:13.781Z,-2.1
2018-02-06T06:34:17.228Z,-2.1
2018-02-06T06:35:20.857Z,-2.1
2018-02-06T06:36:25.085Z,-2.1
2018-02-06T06:37:28.628Z,-2.2
2018-02-06T06:38:35.879Z,-2.2
2018-02-06T06:39:39.559Z,-2.2
2018-02-06T06:40:43.100Z,-2.2
2018-02-06T06:41:46.704Z,-2.2
2018-02-06T06:42:50.219Z,-2.2
2018-02-06T06:43:53.884Z,-2.2
2018-02-06T06:44:57.498Z,-2.2
2018-02-06T06:46:01.644Z,-2.2
2018-02-06T06:47:05.245Z,-2.2
2018-02-06T06:48:08.798Z,-2.2
2018-02-06T06:49:16.161Z,-2.2
2018-02-06T06:50:19.524Z,-2.3
2018-02-06T06:51:23.002Z,-2.3
2018-02-06T06:52:26.413Z,-2.3
2018-02-06T06:53:29.741Z,-2.3
2018-02-06T06:54:33.845Z,-2.2
2018-02-06T06:55:37.992Z,-2.3
2018-02-06T06:56:41.438Z,-2.4
2018-02-06T06:57:45.442Z,-2.4
2018-02-06T06:58:48.881Z,-2.4
2018-02-06T06:59:56.005Z,-2.4
2018-02-06T07:00:59.257Z,-2.3
2018-02-06T07:02:02.770Z,-2.3
2018-02-06T07:03:06.250Z,-2.3
2018-02-06T07:04:09.778Z,-2.3
2018-02-06T07:05:13.227Z,-2.3
2018-02-06T07:06:17.477Z,-2.3
2018-02-06T07:07:20.917Z,-2.3
2018-02-06T07:08:24.406Z,-2.4
2018-02-06T07:09:27.892Z,-2.3
2018-02-06T07:10:34.931Z,-2.3
2018-02-06T07:11:38.435Z,-2.5
2018-02-06T07:12:41.813Z,-2.5
2018-02-06T07:13:46.384Z,-2.4
2018-02-06T07:14:49.839Z,-2.4
2018-02-06T07:15:53.846Z,-2.4
2018-02-06T07:16:57.360Z,-2.4
2018-02-06T07:18:00.801Z,-2.4
2018-02-06T07:19:04.248Z,-2.3
2018-02-06T07:20:07.669Z,-2.3
2018-02-06T07:21:14.794Z,-2.4
2018-02-06T07:22:18.328Z,-2.4
2018-02-06T07:23:21.909Z,-2.3
2018-02-06T07:24:25.332Z,-2.3
2018-02-06T07:25:28.812Z,-2.2
2018-02-06T07:26:32.618Z,-2.3
2018-02-06T07:27:36.684Z,-2.3
2018-02-06T07:28:40.272Z,-2.3
2018-02-06T07:29:43.790Z,-2.3
2018-02-06T07:30:47.457Z,-2.5
2018-02-06T07:31:54.534Z,-2.4
2018-02-06T07:32:58.748Z,-2.3
2018-02-06T07:34:02.261Z,-2.3
2018-02-06T07:35:05.773Z,-2.3
2018-02-06T07:36:09.298Z,-2.3
2018-02-06T07:37:12.771Z,-2.1
2018-02-06T07:38:16.170Z,-2.2
2018-02-06T07:39:19.561Z,-2.2
2018-02-06T07:40:23.075Z,-2.2
2018-02-06T07:41:26.766Z,-2.2
2018-02-06T07:42:33.765Z,-2.2
2018-02-06T07:43:37.242Z,-2.1
2018-02-06T07:44:40.338Z,-2.1
2018-02-06T07:45:44.364Z,-2.1
2018-02-06T07:46:48.570Z,-2.1
2018-02-06T07:47:52.163Z,-2.1
2018-02-06T07:48:55.763Z,-2.1
2018-02-06T07:49:59.257Z,-2
2018-02-06T07:51:02.827Z,-2
2018-02-06T07:52:07.528Z,-1.9
2018-02-06T07:53:14.848Z,-1.9
2018-02-06T07:54:18.413Z,-1.9
2018-02-06T07:55:22.057Z,-1.9
2018-02-06T07:56:25.647Z,-2
2018-02-06T07:57:29.341Z,-2
2018-02-06T07:58:33.057Z,-2
2018-02-06T07:59:36.445Z,-2.1
2018-02-06T08:00:39.975Z,-2
2018-02-06T08:01:44.225Z,-2
2018-02-06T08:02:47.871Z,-1.9
2018-02-06T08:03:55.071Z,-1.8
2018-02-06T08:04:58.631Z,-1.8
2018-02-06T08:06:02.166Z,-1.7
2018-02-06T08:07:05.709Z,-1.6
2018-02-06T08:08:09.238Z,-1.6
2018-02-06T08:09:12.663Z,-1.6
2018-02-06T08:10:16.310Z,-1.7
2018-02-06T08:11:19.852Z,-1.6
2018-02-06T08:12:23.386Z,-1.5
2018-02-06T08:13:26.858Z,-1.5
2018-02-06T08:14:36.890Z,-1.4
2018-02-06T08:15:40.878Z,-1.3
2018-02-06T08:16:44.412Z,-1.3
2018-02-06T08:17:47.892Z,-1.2
2018-02-06T08:18:52.307Z,-1.1
2018-02-06T08:19:55.706Z,-1.1
2018-02-06T08:20:59.225Z,-1
2018-02-06T08:22:02.679Z,-1
2018-02-06T08:23:06.179Z,-1.1
2018-02-06T08:24:09.744Z,-1
2018-02-06T08:25:16.870Z,-1.1
2018-02-06T08:26:20.247Z,-1.1
2018-02-06T08:27:23.665Z,-1.1
2018-02-06T08:28:27.150Z,-0.9
2018-02-06T08:29:30.586Z,-0.9
2018-02-06T08:30:34.099Z,-0.7
2018-02-06T08:31:37.766Z,-0.7
2018-02-06T08:32:42.411Z,-0.7
2018-02-06T08:33:46.541Z,-0.7
2018-02-06T08:34:50.007Z,-0.5
2018-02-06T08:35:57.045Z,-0.5
2018-02-06T08:37:00.506Z,-0.4
2018-02-06T08:38:04.045Z,-0.4
2018-02-06T08:39:07.703Z,-0.4
2018-02-06T08:40:11.303Z,-0.4
2018-02-06T08:41:14.912Z,-0.3
2018-02-06T08:42:18.579Z,-0.3
2018-02-06T08:43:22.138Z,-0.3
2018-02-06T08:44:26.994Z,-0.3
2018-02-06T08:45:30.496Z,-0.2
2018-02-06T08:47:10.525Z,-0.1
2018-02-06T08:48:15.266Z,-0.1
2018-02-06T08:49:18.917Z,-0.1
2018-02-06T08:50:23.084Z,0
2018-02-06T08:51:26.430Z,0
2018-02-06T08:52:29.896Z,0.1
2018-02-06T08:53:34.115Z,0.2
2018-02-06T08:54:38.133Z,0.2
2018-02-06T08:55:42.915Z,0.3
2018-02-06T08:56:46.474Z,0.4
2018-02-06T08:57:54.116Z,0.4
2018-02-06T08:58:57.624Z,0.5
2018-02-06T09:00:01.025Z,0.6
2018-02-06T09:01:04.856Z,0.6
2018-02-06T09:02:08.419Z,0.6
2018-02-06T09:03:12.574Z,0.7
2018-02-06T09:04:16.491Z,0.6
2018-02-06T09:05:21.210Z,0.6
2018-02-06T09:06:24.783Z,0.7
2018-02-06T09:07:28.285Z,0.8
2018-02-06T09:08:35.441Z,0.8
2018-02-06T09:09:39.112Z,0.8
2018-02-06T09:10:42.489Z,0.9
2018-02-06T09:11:46.056Z,0.9
2018-02-06T09:12:49.543Z,0.9
2018-02-06T09:13:53.653Z,1
2018-02-06T09:14:57.221Z,0.8
2018-02-06T09:16:00.712Z,0.7
2018-02-06T09:17:04.284Z,0.6
2018-02-06T09:18:07.845Z,0.7
2018-02-06T09:19:15.081Z,0.8
2018-02-06T09:20:18.620Z,0.9
2018-02-06T09:21:22.070Z,1.1
2018-02-06T09:22:25.833Z,1.1
2018-02-06T09:23:29.252Z,1.1
2018-02-06T09:24:32.691Z,1.1
2018-02-06T09:25:36.231Z,1
2018-02-06T09:26:40.284Z,1.1
2018-02-06T09:27:43.713Z,1.2
2018-02-06T09:28:47.129Z,1.2
2018-02-06T09:29:54.210Z,1.3
2018-02-06T09:30:57.770Z,1.3
2018-02-06T09:32:02.038Z,1.3
2018-02-06T09:33:05.626Z,1.3
2018-02-06T09:34:09.251Z,1.3
2018-02-06T09:35:13.527Z,1.3
2018-02-06T09:36:17.187Z,1.4
2018-02-06T09:37:20.757Z,1.4
2018-02-06T09:38:24.217Z,1.4
2018-02-06T09:39:27.627Z,1.5
2018-02-06T09:40:35.498Z,1.7
2018-02-06T09:41:39.478Z,1.7
2018-02-06T09:42:43.137Z,1.6
2018-02-06T09:43:46.666Z,1.7
2018-02-06T09:44:50.181Z,1.5
2018-02-06T09:45:53.704Z,1.3
2018-02-06T09:46:58.068Z,1.5
2018-02-06T09:48:01.554Z,1.5
2018-02-06T09:49:05.329Z,1.5
2018-02-06T09:50:08.889Z,1.6
2018-02-06T09:51:47.826Z,1.5
2018-02-06T09:52:51.275Z,1.7
2018-02-06T09:53:54.732Z,1.7
2018-02-06T09:54:58.297Z,1.7
2018-02-06T09:56:01.574Z,1.8
2018-02-06T09:57:05.026Z,1.7
2018-02-06T09:58:08.625Z,1.8
2018-02-06T09:59:12.115Z,1.8
2018-02-06T10:00:15.730Z,2
2018-02-06T10:01:19.126Z,1.8
2018-02-06T10:02:26.255Z,1.9
2018-02-06T10:03:29.549Z,1.9
2018-02-06T10:04:33.181Z,1.9
2018-02-06T10:05:36.842Z,2
2018-02-06T10:06:40.457Z,2.1
2018-02-06T10:07:43.819Z,2.1
2018-02-06T10:08:47.002Z,2
2018-02-06T10:09:50.438Z,2.1
2018-02-06T10:10:54.095Z,2
2018-02-06T10:11:57.678Z,2
2018-02-06T10:13:04.660Z,1.9
2018-02-06T10:14:08.939Z,2
2018-02-06T10:15:12.402Z,2
2018-02-06T10:16:15.969Z,2.1
2018-02-06T10:17:19.487Z,2.1
2018-02-06T10:18:23.463Z,2.2
2018-02-06T10:19:26.985Z,2.4
2018-02-06T10:20:30.499Z,2.4
2018-02-06T10:21:34.296Z,2.5
2018-02-06T10:22:38.144Z,2.4
2018-02-06T10:23:45.255Z,2.4
2018-02-06T10:24:48.613Z,2.3
2018-02-06T10:25:52.107Z,2.5
2018-02-06T10:26:55.526Z,2.3
2018-02-06T10:27:58.888Z,2.2
2018-02-06T10:29:02.349Z,2.2
2018-02-06T10:30:05.677Z,2.3
2018-02-06T10:31:09.066Z,2.3
2018-02-06T10:32:12.779Z,2.3
2018-02-06T10:33:16.252Z,2.4
2018-02-06T10:34:23.366Z,2.4
2018-02-06T10:35:26.880Z,2.5
2018-02-06T10:36:30.153Z,2.5
2018-02-06T10:37:33.712Z,2.6
2018-02-06T10:38:37.197Z,2.6
2018-02-06T10:39:40.576Z,2.7
2018-02-06T10:40:44.068Z,2.7
2018-02-06T10:41:47.875Z,2.7
2018-02-06T10:42:51.827Z,2.7
2018-02-06T10:43:55.912Z,2.7
2018-02-06T10:45:03.926Z,2.7
2018-02-06T10:46:08.653Z,2.6
2018-02-06T10:47:12.049Z,2.7
2018-02-06T10:48:15.509Z,2.7
2018-02-06T10:49:18.844Z,2.7
2018-02-06T10:50:22.903Z,2.9
2018-02-06T10:51:26.222Z,2.8
2018-02-06T10:52:30.731Z,2.8
2018-02-06T10:53:35.646Z,2.8
2018-02-06T10:54:38.981Z,2.9
2018-02-06T10:55:46.951Z,2.8
2018-02-06T10:56:50.595Z,2.9
2018-02-06T10:57:54.313Z,2.6
2018-02-06T10:58:58.346Z,2.7
2018-02-06T11:00:01.894Z,2.6
2018-02-06T11:01:05.857Z,2.6
2018-02-06T11:02:09.784Z,2.7
2018-02-06T11:03:13.127Z,2.6
2018-02-06T11:04:17.182Z,2.7
2018-02-06T11:05:20.602Z,2.7
2018-02-06T11:06:28.076Z,2.7
2018-02-06T11:07:32.300Z,2.7
2018-02-06T11:08:37.059Z,2.3
2018-02-06T11:09:40.549Z,2.3
2018-02-06T11:10:44.136Z,2.4
2018-02-06T11:11:48.393Z,2.3
2018-02-06T11:12:51.897Z,2.4
2018-02-06T11:13:55.800Z,2.4
2018-02-06T11:14:59.202Z,2.4
2018-02-06T11:16:02.838Z,2.3
2018-02-06T11:17:10.487Z,2.5
2018-02-06T11:18:13.848Z,2.6
2018-02-06T11:19:17.326Z,2.6
2018-02-06T11:20:22.728Z,2.8
2018-02-06T11:21:26.196Z,2.9
2018-02-06T11:22:30.224Z,2.9
2018-02-06T11:23:35.716Z,2.8
2018-02-06T11:24:40.105Z,2.8
2018-02-06T11:25:43.432Z,2.8
2018-02-06T11:26:47.540Z,2.8
2018-02-06T11:27:56.805Z,2.7
2018-02-06T11:29:00.253Z,2.6
2018-02-06T11:30:04.643Z,2.7
2018-02-06T11:31:08.033Z,2.8
2018-02-06T11:32:11.489Z,2.8
2018-02-06T11:33:14.902Z,2.9
2018-02-06T11:34:18.879Z,2.8
2018-02-06T11:35:22.321Z,2.8
2018-02-06T11:36:25.670Z,2.9
2018-02-06T11:37:29.871Z,2.9
2018-02-06T11:38:37.522Z,3
2018-02-06T11:39:43.611Z,3
2018-02-06T11:40:47.185Z,3
2018-02-06T11:41:50.358Z,3
2018-02-06T11:42:54.367Z,3
2018-02-06T11:43:58.766Z,2.9
2018-02-06T11:45:03.006Z,2.9
2018-02-06T11:46:07.318Z,2.9
2018-02-06T11:47:12.901Z,2.9
2018-02-06T11:48:16.315Z,3
2018-02-06T11:49:23.777Z,3
2018-02-06T11:50:27.403Z,3.1
2018-02-06T11:51:30.921Z,2.9
2018-02-06T11:52:34.501Z,2.9
2018-02-06T11:53:37.910Z,3
2018-02-06T11:54:41.223Z,3
2018-02-06T11:55:44.606Z,3
2018-02-06T11:56:48.940Z,3
2018-02-06T11:57:52.555Z,2.9
2018-02-06T11:58:55.944Z,2.9
2018-02-06T12:00:02.784Z,2.9
2018-02-06T12:01:06.307Z,2.9
2018-02-06T12:02:09.665Z,3
2018-02-06T12:03:13.103Z,3
2018-02-06T12:04:18.053Z,3.1
2018-02-06T12:05:21.425Z,3.1
2018-02-06T12:06:24.822Z,3.2
2018-02-06T12:07:28.961Z,3.2
2018-02-06T12:08:32.935Z,3.2
2018-02-06T12:09:36.464Z,3.2
2018-02-06T12:10:43.442Z,3.2
2018-02-06T12:11:46.882Z,3.2
2018-02-06T12:12:50.678Z,3.1
2018-02-06T12:13:54.188Z,3.1
2018-02-06T12:14:57.574Z,3.1
2018-02-06T12:16:01.007Z,3.1
2018-02-06T12:17:04.411Z,3.1
2018-02-06T12:18:07.963Z,3.1
2018-02-06T12:19:11.424Z,3
2018-02-06T12:20:15.688Z,3.1
2018-02-06T12:21:24.162Z,3.1
2018-02-06T12:22:27.529Z,3.1
2018-02-06T12:23:32.158Z,3.1
2018-02-06T12:24:35.548Z,3.2
2018-02-06T12:25:38.944Z,3.2
2018-02-06T12:26:42.350Z,3.2
2018-02-06T12:27:45.885Z,3.2
2018-02-06T12:28:49.250Z,3.2
2018-02-06T12:29:55.922Z,3.2
2018-02-06T12:31:00.602Z,3.2
2018-02-06T12:32:08.084Z,3.2
2018-02-06T12:33:12.900Z,3.3
2018-02-06T12:34:17.120Z,3.3
2018-02-06T12:35:20.460Z,3.3
2018-02-06T12:36:23.889Z,3.3
2018-02-06T12:37:27.440Z,3.3
2018-02-06T12:38:31.493Z,3.3
2018-02-06T12:39:35.670Z,3.3
2018-02-06T12:40:39.164Z,3.3
2018-02-06T12:41:42.624Z,3.3
2018-02-06T12:42:53.845Z,3.2
2018-02-06T12:43:57.206Z,2.9
2018-02-06T12:45:00.640Z,2.9
2018-02-06T12:46:04.085Z,3
2018-02-06T12:47:07.411Z,3.1
2018-02-06T12:48:10.734Z,3.1
2018-02-06T12:49:14.158Z,3.2
2018-02-06T12:50:19.674Z,3.3
2018-02-06T12:51:23.223Z,3.3
2018-02-06T12:52:28.930Z,3.3
2018-02-06T12:53:37.255Z,3.4
2018-02-06T12:54:42.091Z,3.3
2018-02-06T12:55:45.461Z,3.3
2018-02-06T12:56:49.032Z,3.4
2018-02-06T12:57:52.361Z,3.5
2018-02-06T12:58:55.808Z,3.5
2018-02-06T12:59:59.880Z,3.5
2018-02-06T13:01:03.466Z,3.5
2018-02-06T13:02:09.354Z,3.5
2018-02-06T13:03:12.888Z,3.5
2018-02-06T13:04:22.482Z,3.5
2018-02-06T13:05:26.379Z,3.5
2018-02-06T13:06:30.381Z,3.6
2018-02-06T13:07:35.036Z,3.5
2018-02-06T13:08:39.182Z,3.5
2018-02-06T13:09:42.740Z,3.5
2018-02-06T13:10:46.396Z,3.5
2018-02-06T13:11:50.248Z,3.5
2018-02-06T13:12:54.256Z,3.6
2018-02-06T13:13:58.601Z,3.6
2018-02-06T13:15:07.058Z,3.6
2018-02-06T13:16:11.099Z,3.5
2018-02-06T13:17:15.382Z,3.5
2018-02-06T13:18:19.528Z,3.5
2018-02-06T13:19:23.487Z,3.5
2018-02-06T13:20:28.601Z,3.6
2018-02-06T13:21:32.259Z,3.6
2018-02-06T13:22:35.703Z,3.6
2018-02-06T13:23:40.271Z,3.6
2018-02-06T13:24:44.929Z,3.6
2018-02-06T13:25:53.791Z,3.5
2018-02-06T13:26:57.653Z,3.6
2018-02-06T13:28:01.250Z,3.6
2018-02-06T13:29:05.556Z,3.6
2018-02-06T13:30:09.092Z,3.6
2018-02-06T13:31:12.587Z,3.5
2018-02-06T13:32:16.504Z,3.5
2018-02-06T13:33:19.924Z,3.5
2018-02-06T13:34:23.384Z,3.5
2018-02-06T13:35:27.650Z,3.6
2018-02-06T13:36:34.542Z,3.6
2018-02-06T13:37:38.745Z,3.6
2018-02-06T13:38:43.183Z,3.6
2018-02-06T13:39:46.548Z,3.7
2018-02-06T13:40:50.430Z,3.7
2018-02-06T13:41:53.896Z,3.7
2018-02-06T13:42:57.897Z,3.7
2018-02-06T13:44:02.290Z,3.7
2018-02-06T13:45:05.615Z,3.7
2018-02-06T13:46:09.525Z,3.7
2018-02-06T13:47:53.109Z,3.7
2018-02-06T13:48:57.532Z,3.6
2018-02-06T13:50:02.460Z,3.6
2018-02-06T13:51:05.988Z,3.7
2018-02-06T13:52:10.040Z,3.8
2018-02-06T13:53:14.952Z,3.8
2018-02-06T13:54:18.328Z,3.8
2018-02-06T13:55:23.053Z,3.8
2018-02-06T13:56:27.462Z,3.8
2018-02-06T13:57:32.956Z,3.8
2018-02-06T13:58:41.098Z,3.8
2018-02-06T13:59:44.582Z,3.7
2018-02-06T14:00:49.282Z,3.7
2018-02-06T14:01:54.923Z,3.7
2018-02-06T14:02:58.328Z,3.6
2018-02-06T14:04:01.774Z,3.6
2018-02-06T14:05:05.823Z,3.7
2018-02-06T14:06:09.372Z,3.7
2018-02-06T14:07:14.892Z,3.8
2018-02-06T14:08:20.532Z,3.7
2018-02-06T14:09:29.528Z,3.7
2018-02-06T14:10:33.011Z,3.8
2018-02-06T14:11:36.500Z,3.8
2018-02-06T14:12:41.745Z,3.7
2018-02-06T14:13:47.322Z,3.7
2018-02-06T14:14:51.478Z,3.7
2018-02-06T14:15:54.938Z,3.6
2018-02-06T14:17:00.339Z,3.7
2018-02-06T14:18:03.732Z,3.7
2018-02-06T14:19:07.961Z,3.7
2018-02-06T14:20:17.015Z,3.7
2018-02-06T14:21:20.513Z,3.8
2018-02-06T14:22:24.103Z,3.8
2018-02-06T14:23:28.098Z,3.7
2018-02-06T14:24:31.483Z,3.6
2018-02-06T14:25:35.630Z,3.6
2018-02-06T14:26:39.075Z,3.6
2018-02-06T14:27:43.238Z,3.5
2018-02-06T14:28:48.368Z,3.7
2018-02-06T14:29:53.131Z,3.6
2018-02-06T14:31:01.023Z,3.5
2018-02-06T14:32:06.555Z,3.6
2018-02-06T14:33:10.610Z,3.6
2018-02-06T14:34:14.113Z,3.6
2018-02-06T14:35:19.607Z,3.6
2018-02-06T14:36:24.559Z,3.7
2018-02-06T14:37:28.764Z,3.6
2018-02-06T14:38:34.315Z,3.6
2018-02-06T14:39:38.287Z,3.6
2018-02-06T14:40:43.687Z,3.6
2018-02-06T14:41:52.756Z,3.6
2018-02-06T14:42:57.055Z,3.6
2018-02-06T14:44:01.148Z,3.6
2018-02-06T14:45:05.849Z,3.6
2018-02-06T14:46:09.286Z,3.6
2018-02-06T14:47:12.813Z,3.6
2018-02-06T14:48:16.409Z,3.6
2018-02-06T14:49:19.888Z,3.6
2018-02-06T14:50:24.851Z,3.5
2018-02-06T14:51:28.233Z,3.5
2018-02-06T14:52:38.902Z,3.4
2018-02-06T14:53:43.565Z,3.4
2018-02-06T14:54:48.188Z,3.4
2018-02-06T14:55:53.722Z,3.4
2018-02-06T14:56:59.203Z,3.4
2018-02-06T14:58:05.401Z,3.4
2018-02-06T14:59:09.100Z,3.3
2018-02-06T15:00:14.300Z,3.3
2018-02-06T15:01:17.802Z,3.3
2018-02-06T15:02:21.322Z,3.2
2018-02-06T15:03:31.516Z,3.2
2018-02-06T15:04:35.597Z,3.3
2018-02-06T15:05:39.952Z,3.3
2018-02-06T15:06:43.586Z,3.4
2018-02-06T15:07:48.724Z,3.4
2018-02-06T15:08:53.035Z,3.4
2018-02-06T15:09:56.806Z,3.3
2018-02-06T15:11:00.076Z,3.3
2018-02-06T15:12:04.841Z,3.3
2018-02-06T15:13:10.492Z,3.2
2018-02-06T15:14:19.164Z,3.2
2018-02-06T15:15:22.745Z,3.1
2018-02-06T15:16:27.750Z,3.2
2018-02-06T15:17:32.616Z,3.2
2018-02-06T15:18:36.679Z,3.2
2018-02-06T15:19:42.244Z,3.2
2018-02-06T15:20:46.410Z,3.1
2018-02-06T15:21:50.466Z,3.2
2018-02-06T15:22:57.239Z,3.2
2018-02-06T15:24:01.784Z,3.2
2018-02-06T15:25:11.227Z,3.2
2018-02-06T15:26:16.197Z,3.1
2018-02-06T15:27:22.863Z,3.1
2018-02-06T15:28:27.502Z,3
2018-02-06T15:29:31.058Z,3.1
2018-02-06T15:30:35.783Z,3.1
2018-02-06T15:31:38.940Z,3.1
2018-02-06T15:32:43.618Z,3.1
2018-02-06T15:33:50.260Z,3.1
2018-02-06T15:34:55.900Z,3.1
2018-02-06T15:36:06.661Z,3
2018-02-06T15:37:10.040Z,3.1
2018-02-06T15:38:13.779Z,3
2018-02-06T15:39:17.765Z,2.9
2018-02-06T15:40:21.196Z,3
2018-02-06T15:41:24.662Z,3
2018-02-06T15:42:28.128Z,3
2018-02-06T15:43:33.636Z,3
2018-02-06T15:44:38.408Z,2.9
2018-02-06T15:45:42.630Z,2.9
2018-02-06T15:46:51.827Z,2.8
2018-02-06T15:47:56.546Z,2.8
2018-02-06T15:49:04.226Z,2.8
2018-02-06T15:50:09.727Z,2.8
2018-02-06T15:51:13.178Z,2.8
2018-02-06T15:52:16.637Z,2.8
2018-02-06T15:53:20.157Z,2.6
2018-02-06T15:54:24.167Z,2.6
2018-02-06T15:55:30.649Z,2.7
2018-02-06T15:56:37.090Z,2.5
2018-02-06T15:57:47.353Z,2.5
2018-02-06T15:58:50.944Z,2.5
2018-02-06T15:59:54.430Z,2.4
2018-02-06T16:00:57.688Z,2.3
2018-02-06T16:02:01.976Z,2.3
2018-02-06T16:03:09.864Z,2.1
2018-02-06T16:04:13.458Z,2.1
2018-02-06T16:05:17.056Z,2.2
2018-02-06T16:06:20.477Z,2.3
2018-02-06T16:07:24.064Z,2.3
2018-02-06T16:08:32.019Z,2.4
2018-02-06T16:09:35.609Z,2.3
2018-02-06T16:10:39.768Z,2.3
2018-02-06T16:11:43.326Z,2.3
2018-02-06T16:12:46.799Z,2.2
2018-02-06T16:13:50.260Z,2.2
2018-02-06T16:14:53.913Z,2.2
2018-02-06T16:15:57.780Z,2.1
2018-02-06T16:17:11.377Z,2.1
2018-02-06T16:18:15.557Z,2
2018-02-06T16:19:55.963Z,2
2018-02-06T16:21:00.477Z,2
2018-02-06T16:22:04.762Z,2
2018-02-06T16:23:09.130Z,2
2018-02-06T16:24:12.774Z,2.1
2018-02-06T16:25:16.779Z,2
2018-02-06T16:26:21.015Z,1.9
2018-02-06T16:27:25.185Z,1.9
2018-02-06T16:28:30.190Z,1.9
2018-02-06T16:29:33.764Z,1.8
2018-02-06T16:30:40.938Z,1.8
2018-02-06T16:31:44.555Z,1.9
2018-02-06T16:32:47.920Z,1.8
2018-02-06T16:33:52.170Z,1.8
2018-02-06T16:34:59.369Z,1.8
2018-02-06T16:36:03.492Z,1.8
2018-02-06T16:37:07.524Z,1.8
2018-02-06T16:38:11.291Z,1.7
2018-02-06T16:39:15.506Z,1.7
2018-02-06T16:40:19.696Z,1.7